TimeCST,TemperatureF,Dew PointF,Humidity,Sea Level PressureIn,VisibilityMPH,Wind Direction,Wind SpeedMPH,Gust SpeedMPH,PrecipitationIn,Events,Conditions,WindDirDegrees,DateUTC
12:15 AM,53.6,53.6,100,29.93,10.0,NNE,3.5,-,0.01,,Unknown,30,2013-02-05 06:15:00
12:35 AM,53.6,51.8,94,29.93,10.0,Calm,Calm,-,0.01,,Unknown,0,2013-02-05 06:35:00
12:55 AM,53.6,51.8,94,29.93,10.0,Calm,Calm,-,0.02,,Unknown,0,2013-02-05 06:55:00
1:15 AM,53.6,53.6,100,29.93,7.0,Calm,Calm,-,0.01,,Unknown,0,2013-02-05 07:15:00
1:35 AM,53.6,53.6,100,29.93,5.0,North,3.5,-,0.01,,Mist,350,2013-02-05 07:35:00
1:55 AM,53.6,53.6,100,29.93,5.0,NNW,3.5,-,0.01,,Mist,340,2013-02-05 07:55:00
2:15 AM,53.6,53.6,100,29.92,5.0,North,6.9,-,0.01,,Mist,350,2013-02-05 08:15:00
2:35 AM,51.8,51.8,100,29.92,7.0,NNW,3.5,-,0.02,,Unknown,330,2013-02-05 08:35:00
2:55 AM,51.8,51.8,100,29.92,5.0,North,3.5,-,0.02,,Mist,10,2013-02-05 08:55:00
3:15 AM,51.8,51.8,100,29.92,10.0,North,8.1,-,0.01,,Unknown,350,2013-02-05 09:15:00
3:35 AM,51.8,51.8,100,29.92,5.0,NNW,5.8,-,0.02,,Mist,340,2013-02-05 09:35:00
3:55 AM,51.8,51.8,100,29.93,3.0,Calm,Calm,-,0.03,,Mist,0,2013-02-05 09:55:00
4:15 AM,51.8,51.8,100,29.94,1.8,North,3.5,-,0.01,,Mist,350,2013-02-05 10:15:00
4:35 AM,51.8,51.8,100,29.93,0.8,North,5.8,-,0.04,,Mist,360,2013-02-05 10:35:00
4:55 AM,51.8,51.8,100,29.94,1.2,North,5.8,-,0.05,,Mist,360,2013-02-05 10:55:00
5:15 AM,51.8,51.8,100,29.94,4.0,North,6.9,-,0.01,,Mist,10,2013-02-05 11:15:00
5:35 AM,51.8,51.8,100,29.95,4.0,North,3.5,-,0.03,,Mist,360,2013-02-05 11:35:00
5:55 AM,51.8,51.8,100,29.96,5.0,NNE,3.5,-,0.04,,Mist,30,2013-02-05 11:55:00
6:15 AM,51.8,51.8,100,29.96,5.0,NE,3.5,-,0.01,,Mist,40,2013-02-05 12:15:00
6:35 AM,51.8,51.8,100,29.96,5.0,NNE,3.5,-,0.02,,Mist,30,2013-02-05 12:35:00
6:55 AM,51.8,51.8,100,29.96,7.0,NNE,3.5,-,0.03,,Unknown,20,2013-02-05 12:55:00
7:15 AM,51.8,51.8,100,29.97,5.0,North,-9999.0,-,0.01,,Mist,0,2013-02-05 13:15:00
7:35 AM,51.8,51.8,100,29.98,4.0,NNE,6.9,-,0.02,,Mist,20,2013-02-05 13:35:00
7:55 AM,51.8,51.8,100,29.99,0.5,NNE,6.9,-,0.03,Fog,Fog,30,2013-02-05 13:55:00
8:15 AM,51.8,51.8,100,29.99,0.2,North,6.9,-,0.01,Fog,Fog,10,2013-02-05 14:15:00
8:35 AM,51.8,51.8,100,30.00,0.2,NNE,4.6,-,0.02,Fog,Fog,30,2013-02-05 14:35:00
8:55 AM,51.8,51.8,100,30.00,0.2,NNE,8.1,-,0.02,Fog,Fog,30,2013-02-05 14:55:00
9:15 AM,51.8,51.8,100,30.01,0.2,NE,5.8,-,0.01,Fog,Fog,40,2013-02-05 15:15:00
9:35 AM,51.8,51.8,100,30.01,0.2,NE,5.8,-,0.02,Fog,Fog,40,2013-02-05 15:35:00
9:55 AM,51.8,51.8,100,30.02,0.8,NE,4.6,-,0.02,,Mist,50,2013-02-05 15:55:00
10:15 AM,51.8,51.8,100,30.02,1.5,East,4.6,-,0.01,,Mist,80,2013-02-05 16:15:00
10:35 AM,53.6,53.6,100,30.02,5.0,Calm,Calm,-,0.02,,Mist,0,2013-02-05 16:35:00
10:55 AM,53.6,53.6,100,30.02,10.0,East,3.5,-,0.02,,Unknown,80,2013-02-05 16:55:00
11:15 AM,55.4,55.4,100,30.01,10.0,NNE,6.9,-,N/A,,Unknown,20,2013-02-05 17:15:00
11:35 AM,60.8,59.0,94,30.01,7.0,North,4.6,-,0.01,,Unknown,10,2013-02-05 17:35:00
11:55 AM,60.8,59.0,94,30.02,10.0,Calm,Calm,-,0.01,,Unknown,0,2013-02-05 17:55:00
12:15 PM,60.8,60.8,100,30.02,10.0,Calm,Calm,-,N/A,,Unknown,0,2013-02-05 18:15:00
12:35 PM,62.6,60.8,94,30.01,10.0,SSE,4.6,-,N/A,,Unknown,160,2013-02-05 18:35:00
12:55 PM,64.4,62.6,94,29.99,10.0,Calm,Calm,-,N/A,,Unknown,0,2013-02-05 18:55:00
1:15 PM,64.4,62.6,94,29.98,10.0,Calm,Calm,-,N/A,,Unknown,0,2013-02-05 19:15:00
1:35 PM,68.0,62.6,83,29.98,10.0,Calm,Calm,-,0.01,,Unknown,0,2013-02-05 19:35:00
1:55 PM,69.8,62.6,78,29.97,10.0,NNW,3.5,-,0.01,,Unknown,340,2013-02-05 19:55:00
2:15 PM,69.8,62.6,78,29.97,10.0,Calm,Calm,-,N/A,,Unknown,0,2013-02-05 20:15:00
2:35 PM,69.8,62.6,78,29.97,10.0,Calm,Calm,-,N/A,,Unknown,0,2013-02-05 20:35:00
2:55 PM,69.8,62.6,78,29.97,10.0,North,5.8,-,N/A,,Unknown,360,2013-02-05 20:55:00
3:15 PM,68.0,62.6,83,29.97,10.0,NNE,4.6,-,N/A,,Unknown,20,2013-02-05 21:15:00
3:35 PM,68.0,62.6,83,29.97,10.0,NE,4.6,-,N/A,,Unknown,50,2013-02-05 21:35:00
3:55 PM,68.0,62.6,83,29.97,10.0,NNE,3.5,-,0.01,,Unknown,30,2013-02-05 21:55:00
4:15 PM,68.0,62.6,83,29.97,10.0,East,3.5,-,N/A,,Unknown,100,2013-02-05 22:15:00
4:35 PM,68.0,62.6,83,29.97,10.0,ESE,3.5,-,N/A,,Unknown,120,2013-02-05 22:35:00
4:55 PM,66.2,62.6,88,29.97,10.0,Calm,Calm,-,N/A,,Unknown,0,2013-02-05 22:55:00
5:15 PM,66.2,62.6,88,29.97,10.0,Calm,Calm,-,N/A,,Unknown,0,2013-02-05 23:15:00
5:35 PM,64.4,60.8,88,29.98,10.0,Calm,Calm,-,N/A,,Unknown,0,2013-02-05 23:35:00
5:55 PM,64.4,60.8,88,29.98,10.0,Calm,Calm,-,N/A,,Unknown,0,2013-02-05 23:55:00
6:15 PM,62.6,60.8,94,29.99,10.0,Calm,Calm,-,N/A,,Unknown,0,2013-02-06 00:15:00
6:35 PM,60.8,59.0,94,29.99,10.0,Calm,Calm,-,N/A,,Unknown,0,2013-02-06 00:35:00
6:55 PM,59.0,59.0,100,29.99,10.0,Calm,Calm,-,N/A,,Unknown,0,2013-02-06 00:55:00
7:15 PM,59.0,59.0,100,30.00,10.0,Calm,Calm,-,N/A,,Unknown,0,2013-02-06 01:15:00
7:35 PM,57.2,55.4,94,30.01,0.8,Calm,Calm,-,N/A,,Mist,0,2013-02-06 01:35:00
7:55 PM,55.4,55.4,100,30.02,3.0,Calm,Calm,-,N/A,,Mist,0,2013-02-06 01:55:00
8:15 PM,53.6,53.6,100,30.02,0.5,Calm,Calm,-,N/A,Fog,Fog,0,2013-02-06 02:15:00
8:35 PM,53.6,53.6,100,30.02,0.2,Calm,Calm,-,N/A,Fog,Fog,0,2013-02-06 02:35:00
8:55 PM,51.8,51.8,100,30.03,0.2,Calm,Calm,-,N/A,Fog,Fog,0,2013-02-06 02:55:00
9:15 PM,50.0,50.0,100,30.03,0.2,Calm,Calm,-,N/A,Fog,Fog,0,2013-02-06 03:15:00
9:35 PM,50.0,50.0,100,30.03,0.2,Calm,Calm,-,N/A,Fog,Fog,0,2013-02-06 03:35:00
9:55 PM,46.4,46.4,100,30.04,0.2,Calm,Calm,-,N/A,Fog,Fog,0,2013-02-06 03:55:00
10:15 PM,46.4,46.4,100,30.04,0.2,Calm,Calm,-,N/A,Fog,Fog,0,2013-02-06 04:15:00
10:35 PM,46.4,46.4,100,30.04,0.5,Calm,Calm,-,N/A,Fog,Fog,0,2013-02-06 04:35:00
10:55 PM,46.4,46.4,100,30.04,0.5,Calm,Calm,-,N/A,Fog,Fog,0,2013-02-06 04:55:00
11:15 PM,46.4,46.4,100,30.04,0.5,Calm,Calm,-,N/A,Fog,Fog,0,2013-02-06 05:15:00
11:35 PM,46.4,46.4,100,30.03,0.5,Calm,Calm,-,N/A,Fog,Fog,0,2013-02-06 05:35:00
11:55 PM,46.4,46.4,100,30.03,0.8,Calm,Calm,-,N/A,,Mist,0,2013-02-06 05:55:00